Airport ICAO


22:57 UTC

10°C

Clear skies


An affordable passengers' Moving Map for your aircraft. Made for the iPad and the iPhone
More information here

EGKK Gatwick


London UNITED KINGDOM   VFR CAVOK


METAR EGKK 132250Z 19004KT CAVOK 10/09 Q1025 0h07min

TAF EGKK 131703Z 1318/1424 19006KT 9999 FEW030 PROB30 1323/1408 8000 PROB30 TEMPO 1419/1424 BKN010 5h54min





NOTAMS

OPEN